Norfolk Ns (Chambers Fld) Airport
KNGU : now visible

Airfield :











YOU CAN JOIN US ON...

 
LOGIN :

Register | Disclaimer

   EN    FR    IT 

 









Legend :    VFR   Marginal VFR   IFR   Intensive IFR   Very Intensive IFR
Visi :
Ceiling :
>= 8 km
>= 3000ft
5 to 8 km
1000 to 3000 ft
1500m to 5 km
500 to 1000 ft
800 to 1500m
200 to 500 ft
< 800m
< 200 ft
Symbols :   Thunderstorms  Fog  Heavy snow  Heavy precipitations  Wind > 20 kt







- Airport Elevation : 17 ft


KNGU - Norfolk Ns (Chambers Fld)

CURRENT METAR :
  • 211659Z VRB03KT 10SM FEW300 27/14 A3026 RMK AO2 SLP248 T02720144 $

EXPIRED METARs :
  • 211559Z VRB04KT 10SM FEW300 26/16 A3028 RMK AO2 SLP253 T02560156 $
  • 211459Z VRB04KT 10SM FEW300 24/16 A3029 RMK AO2 SLP256 T02440161 58005 $

TAF TAF KNGU
Valid from the 21 at 15:00 until the 22 at 15:00 UTC


2115/2215 22007KT 9999 FEW250 QNH3024INS
FM212000 18008KT 9999 FEW040 FEW250 QNH3020INS
FM220200 21005KT 9999 FEW250 QNH3019INS
FM221500 22008KT 9999 FEW250 QNH3019INS T26/2119Z T19/2209Z FN00204
No reported NOTAMs for that airfield.



MET'MAP, your aeronautical weather chart ! - Copyright ORBIFLY December 2007 - Disclaimer

ORBIFLY MET'MAP TEAM :

Programming & Development : Alexandra Zaïnal
Concept & Development : Baudouin d'Aumeries
Co-Development & Prog : Marc-Olivier Méhu
Technical & hardware support : Manuel Goepfert

Contact : metmap@orbifly.com




SOURCES & CREDITS :

   NOAA       Earth
Advisory